Time;durP1;ratioP1;P1;durP2;ratioP2;P2;SDS_P1;SDS_P2;PMS_P1;PMS_P2;Temp;Humidity;BMP_temperature;BMP_pressure;BME280_temperature;BME280_humidity;BME280_pressure;Samples;Min_cycle;Max_cycle;Signal;HPM_P1;HPM_P2
2021/01/26 00:04:18;;;;;;;16.67;12.60;;;;;;;-0.24;100.00;99124.31;3586654;82;25821;-73
2021/01/26 00:09:19;;;;;;;17.30;13.10;;;;;;;-0.31;100.00;99125.30;3586760;82;25968;-74
2021/01/26 00:14:20;;;;;;;14.80;10.73;;;;;;;-0.32;100.00;99132.27;3586824;82;25922;-75
2021/01/26 00:19:23;;;;;;;14.97;12.27;;;;;;;-0.27;100.00;99128.28;3586710;82;25837;-74
2021/01/26 00:24:24;;;;;;;17.60;10.73;;;;;;;-0.29;100.00;99145.80;3586825;82;28190;-74
2021/01/26 00:29:25;;;;;;;15.70;12.28;;;;;;;-0.38;100.00;99145.47;3586514;82;29136;-73
2021/01/26 00:34:26;;;;;;;15.23;12.33;;;;;;;-0.41;100.00;99142.03;3586846;82;25761;-74
2021/01/26 00:39:28;;;;;;;17.00;11.27;;;;;;;-0.36;100.00;99144.16;3587205;82;35299;-69
2021/01/26 00:44:28;;;;;;;17.57;13.03;;;;;;;-0.46;100.00;99151.30;3586516;82;25701;-72
2021/01/26 00:49:29;;;;;;;20.12;13.55;;;;;;;-0.45;100.00;99149.07;3587312;82;25736;-74
2021/01/26 00:54:31;;;;;;;18.90;12.37;;;;;;;-0.45;100.00;99150.38;3587459;82;25777;-74
2021/01/26 00:59:32;;;;;;;20.93;14.50;;;;;;;-0.46;100.00;99139.94;3587223;82;25927;-68
2021/01/26 01:04:39;;;;;;;16.27;11.77;;;;;;;-0.39;100.00;99138.95;3587290;82;25756;-73
2021/01/26 01:09:39;;;;;;;14.33;9.47;;;;;;;-0.44;100.00;99135.55;3586858;82;35402;-73
2021/01/26 01:14:42;;;;;;;18.57;10.80;;;;;;;-0.44;100.00;99139.02;3586987;82;29203;-73
2021/01/26 01:19:43;;;;;;;22.27;14.53;;;;;;;-0.44;100.00;99131.16;3587283;82;35461;-74
2021/01/26 01:24:44;;;;;;;21.80;13.83;;;;;;;-0.42;100.00;99132.47;3587090;82;26630;-73
2021/01/26 01:29:45;;;;;;;20.27;14.40;;;;;;;-0.40;100.00;99131.98;3588239;82;29103;-72
2021/01/26 01:34:46;;;;;;;21.40;13.75;;;;;;;-0.33;100.00;99137.55;3588070;82;28230;-73
2021/01/26 01:39:47;;;;;;;21.33;14.20;;;;;;;-0.38;100.00;99138.07;3587505;82;25736;-73
2021/01/26 01:44:49;;;;;;;21.57;15.27;;;;;;;-0.38;100.00;99130.22;3587019;82;25727;-73
2021/01/26 01:49:54;;;;;;;13.53;9.03;;;;;;;-0.35;100.00;99130.15;3587418;82;28206;-73
2021/01/26 01:55:04;;;;;;;14.97;10.47;;;;;;;-0.39;100.00;99129.33;3586976;82;34991;-73
2021/01/26 02:00:10;;;;;;;19.40;12.80;;;;;;;-0.35;100.00;99136.27;3586589;82;34883;-73
2021/01/26 02:05:14;;;;;;;19.30;14.07;;;;;;;-0.40;100.00;99147.70;3587029;82;34916;-74
2021/01/26 02:10:16;;;;;;;22.27;15.93;;;;;;;-0.40;100.00;99133.30;3587301;82;35361;-68
2021/01/26 02:15:21;;;;;;;17.87;13.57;;;;;;;-0.33;100.00;99145.41;3587487;82;26319;-68
2021/01/26 02:20:55;;;;;;;21.33;14.73;;;;;;;-0.35;100.00;99140.63;3587397;82;25748;-75
2021/01/26 02:26:04;;;;;;;18.97;11.20;;;;;;;-0.38;100.00;99145.92;3586429;82;34793;-73
2021/01/26 02:31:35;;;;;;;17.23;10.80;;;;;;;-0.43;100.00;99153.00;3586305;82;35288;-68
2021/01/26 02:37:33;;;;;;;22.37;15.27;;;;;;;-0.38;100.00;99156.41;3587363;82;34981;-73
2021/01/26 02:42:58;;;;;;;25.50;17.80;;;;;;;-0.40;100.00;99154.24;3587127;82;35357;-74
2021/01/26 02:48:33;;;;;;;21.25;14.43;;;;;;;-0.38;100.00;99166.42;3482668;82;25851;-73
2021/01/26 02:54:05;;;;;;;17.23;11.55;;;;;;;-0.43;100.00;99160.84;3586850;82;25797;-72
2021/01/26 02:59:23;;;;;;;21.17;15.20;;;;;;;-0.46;100.00;99168.31;3586624;82;35331;-74
2021/01/26 03:04:49;;;;;;;21.77;16.07;;;;;;;-0.43;100.00;99170.02;3586501;82;34871;-73
2021/01/26 03:09:55;;;;;;;22.83;17.37;;;;;;;-0.45;100.00;99165.23;3586959;82;35286;-68
2021/01/26 03:15:18;;;;;;;19.17;11.73;;;;;;;-0.50;100.00;99167.48;3586368;82;34787;-67
2021/01/26 03:20:30;;;;;;;19.63;11.80;;;;;;;-0.51;100.00;99167.48;3586848;82;34849;-74
2021/01/26 03:25:33;;;;;;;15.33;11.07;;;;;;;-0.47;100.00;99169.20;3586830;82;34768;-66
2021/01/26 03:30:39;;;;;;;21.20;15.97;;;;;;;-0.42;100.00;99181.77;3586863;82;34817;-72
2021/01/26 03:35:42;;;;;;;27.03;19.10;;;;;;;-0.48;100.00;99184.48;3586835;82;35808;-73
2021/01/26 03:40:44;;;;;;;23.00;16.93;;;;;;;-0.45;100.00;99182.25;3586841;82;35385;-69
2021/01/26 03:45:51;;;;;;;21.43;16.60;;;;;;;-0.41;100.00;99180.00;3586595;82;35256;-74
2021/01/26 03:51:22;;;;;;;25.00;16.13;;;;;;;-0.36;100.00;99181.67;3584050;82;34919;-72
2021/01/26 03:56:47;;;;;;;25.17;17.10;;;;;;;-0.51;100.00;99186.70;3586513;82;34867;-68
2021/01/26 04:02:20;;;;;;;23.67;17.67;;;;;;;-0.49;100.00;99195.38;3552204;82;25807;-68
2021/01/26 04:07:27;;;;;;;20.30;13.70;;;;;;;-0.47;100.00;99184.02;3586655;82;34866;-73
2021/01/26 04:12:32;;;;;;;21.30;15.47;;;;;;;-0.48;100.00;99191.02;3585719;82;35057;-72
2021/01/26 04:17:41;;;;;;;19.20;11.97;;;;;;;-0.44;100.00;99193.16;3586439;82;35223;-74
2021/01/26 04:22:43;;;;;;;17.30;13.17;;;;;;;-0.53;100.00;99201.55;3567885;82;34897;-72
2021/01/26 04:27:44;;;;;;;19.83;14.33;;;;;;;-0.50;100.00;99201.53;3586502;82;34830;-74
2021/01/26 04:32:46;;;;;;;22.07;14.47;;;;;;;-0.52;100.00;99207.22;3589303;82;26204;-74
2021/01/26 04:37:47;;;;;;;17.30;11.70;;;;;;;-0.51;100.00;99203.72;3588697;82;25817;-73
2021/01/26 04:42:52;;;;;;;19.67;14.80;;;;;;;-0.46;100.00;99212.82;3587556;82;25729;-74
2021/01/26 04:48:15;;;;;;;16.00;11.23;;;;;;;-0.51;100.00;99214.19;3585831;82;35296;-61
2021/01/26 04:54:01;;;;;;;14.43;10.47;;;;;;;-0.52;100.00;99212.45;3584640;82;35318;-74
2021/01/26 04:59:45;;;;;;;19.77;15.17;;;;;;;-0.49;100.00;99215.01;3586386;82;34872;-74
2021/01/26 05:04:53;;;;;;;19.07;14.23;;;;;;;-0.53;100.00;99208.55;3507359;82;25836;-73
2021/01/26 05:10:12;;;;;;;17.17;12.70;;;;;;;-0.53;100.00;99208.55;3586310;82;35832;-73
2021/01/26 05:15:19;;;;;;;16.37;12.13;;;;;;;-0.51;100.00;99219.85;3586156;82;35308;-74
2021/01/26 05:20:25;;;;;;;10.97;7.73;;;;;;;-0.56;100.00;99227.77;3586566;82;34759;-75
2021/01/26 05:25:27;;;;;;;16.57;11.63;;;;;;;-0.58;100.00;99216.47;3586593;82;35404;-69
2021/01/26 05:30:34;;;;;;;15.70;11.13;;;;;;;-0.62;100.00;99213.45;3586882;82;34903;-75
2021/01/26 05:35:44;;;;;;;16.23;12.67;;;;;;;-0.58;100.00;99229.55;3586664;82;35269;-74
2021/01/26 05:40:59;;;;;;;14.63;12.33;;;;;;;-0.60;100.00;99227.39;3586489;82;35287;-69
2021/01/26 05:46:04;;;;;;;17.77;13.10;;;;;;;-0.59;100.00;99227.82;3587756;82;26298;-67
2021/01/26 05:51:20;;;;;;;;;;;;;;;-0.57;100.00;99233.91;3544754;82;25715;-75
2021/01/26 05:56:22;;;;;;;19.27;13.97;;;;;;;-0.54;100.00;99229.07;3531859;81;35046;-73
2021/01/26 06:01:31;;;;;;;18.93;14.30;;;;;;;-0.58;100.00;99230.86;3592272;81;35009;-68
2021/01/26 06:06:54;;;;;;;18.93;13.87;;;;;;;-0.57;100.00;99238.27;3595801;81;34906;-68
2021/01/26 06:12:27;;;;;;;16.23;11.87;;;;;;;-0.53;100.00;99251.75;3589932;82;34903;-74
2021/01/26 06:17:33;;;;;;;15.03;10.93;;;;;;;-0.51;100.00;99252.16;3593668;81;35362;-68
2021/01/26 06:22:36;;;;;;;14.37;10.63;;;;;;;-0.57;100.00;99256.16;3590469;82;34834;-68
2021/01/26 06:27:57;;;;;;;20.47;14.27;;;;;;;-0.57;100.00;99255.28;3592743;82;35384;-73
2021/01/26 06:33:30;;;;;;;18.30;12.87;;;;;;;-0.50;100.00;99272.22;3582246;79;34877;-74
2021/01/26 06:38:56;;;;;;;19.03;11.33;;;;;;;-0.54;100.00;99275.73;3554167;83;35302;-75
2021/01/26 06:44:21;;;;;;;20.67;13.83;;;;;;;-0.55;100.00;99275.77;3554776;83;34805;-75
2021/01/26 06:49:31;;;;;;;15.60;11.40;;;;;;;-0.58;100.00;99288.45;3553927;83;25766;-73
2021/01/26 06:54:54;;;;;;;20.07;12.70;;;;;;;-0.59;100.00;99288.45;3560315;82;34961;-73
2021/01/26 07:00:36;;;;;;;18.57;11.37;;;;;;;-0.52;100.00;99294.92;3546607;83;35318;-58
2021/01/26 07:05:52;;;;;;;18.97;12.23;;;;;;;-0.63;100.00;99300.71;3560012;82;35336;-73
2021/01/26 07:11:22;;;;;;;17.27;11.17;;;;;;;-0.62;100.00;99302.45;3551394;83;35371;-73
2021/01/26 07:16:52;;;;;;;17.87;12.60;;;;;;;-0.66;100.00;99309.47;3524622;83;36062;-73
2021/01/26 07:22:22;;;;;;;22.57;13.30;;;;;;;-0.66;100.00;99307.31;3560786;83;34842;-73
2021/01/26 07:27:46;;;;;;;17.33;10.27;;;;;;;-0.67;100.00;99309.50;3550069;82;34947;-73
2021/01/26 07:33:05;;;;;;;12.63;7.55;;;;;;;-0.68;100.00;99302.10;3551782;83;25815;-73
2021/01/26 07:38:26;;;;;;;16.27;9.63;;;;;;;-0.68;100.00;99308.64;3553803;83;34773;-74
2021/01/26 07:43:50;;;;;;;19.27;12.40;;;;;;;-0.68;100.00;99306.03;3541237;82;35306;-75
2021/01/26 07:49:08;;;;;;;20.97;12.30;;;;;;;-0.67;100.00;99312.11;3557015;83;34954;-72
2021/01/26 07:54:36;;;;;;;19.83;12.57;;;;;;;-0.62;100.00;99327.31;3563667;83;34856;-72
2021/01/26 07:59:45;;;;;;;20.97;14.10;;;;;;;-0.59;100.00;99330.34;3563582;83;35299;-68
2021/01/26 08:04:47;;;;;;;23.80;14.80;;;;;;;-0.60;100.00;99324.70;3562726;82;34803;-72
2021/01/26 08:09:51;;;;;;;21.80;12.80;;;;;;;-0.54;100.00;99319.39;3561837;83;34838;-73
2021/01/26 08:14:56;;;;;;;17.30;10.53;;;;;;;-0.51;100.00;99326.77;3618903;79;39883;-73
2021/01/26 08:20:31;;;;;;;20.05;11.20;;;;;;;-0.46;100.00;99323.21;3614006;81;25767;-73
2021/01/26 08:25:41;;;;;;;19.43;11.57;;;;;;;-0.45;100.00;99333.66;3625094;81;34917;-74
2021/01/26 08:36:32;;;;;;;23.13;14.40;;;;;;;-0.40;100.00;99348.02;3491891;82;35345;-67
2021/01/26 08:41:51;;;;;;;18.80;12.03;;;;;;;-0.38;100.00;99332.70;3410746;83;26324;-73
2021/01/26 08:46:55;;;;;;;27.67;17.10;;;;;;;-0.39;100.00;99349.30;3445578;84;35456;-73
2021/01/26 08:52:16;;;;;;;22.60;12.77;;;;;;;-0.28;100.00;99344.38;3448814;84;35330;-72
2021/01/26 08:57:31;;;;;;;21.13;14.77;;;;;;;-0.20;100.00;99340.77;3341030;85;34984;-68
2021/01/26 09:02:43;;;;;;;28.30;15.90;;;;;;;-0.18;100.00;99332.45;3441962;84;34811;-72
2021/01/26 09:07:56;;;;;;;21.70;13.63;;;;;;;-0.11;100.00;99345.47;3467900;84;34871;-68
2021/01/26 09:13:23;;;;;;;18.50;10.77;;;;;;;-0.08;100.00;99350.23;3451536;84;35032;-74
2021/01/26 09:18:27;;;;;;;14.13;9.30;;;;;;;-0.05;100.00;99340.14;3444097;84;35350;-74
2021/01/26 09:23:31;;;;;;;19.50;10.83;;;;;;;-0.04;100.00;99351.05;3445262;84;34821;-69
2021/01/26 09:28:42;;;;;;;17.87;11.10;;;;;;;0.05;100.00;99348.31;3445345;84;34922;-73
2021/01/26 09:33:44;;;;;;;19.67;13.50;;;;;;;0.00;100.00;99363.24;3408749;85;34938;-74
2021/01/26 09:38:49;;;;;;;23.33;14.13;;;;;;;0.08;100.00;99356.12;3404913;82;56195;-74
2021/01/26 09:43:57;;;;;;;21.70;14.40;;;;;;;0.11;100.00;99365.69;3388616;87;25831;-73
2021/01/26 09:49:22;;;;;;;18.47;13.67;;;;;;;0.13;100.00;99363.50;3368750;87;34970;-73
2021/01/26 09:54:29;;;;;;;18.30;14.18;;;;;;;0.20;100.00;99363.41;3369281;87;26692;-73
2021/01/26 09:59:34;;;;;;;15.57;11.53;;;;;;;0.33;99.07;99378.06;3366319;87;35280;-73
2021/01/26 10:04:38;;;;;;;15.23;11.63;;;;;;;0.41;96.18;99381.88;3309025;88;25894;-74
2021/01/26 10:09:40;;;;;;;12.83;9.73;;;;;;;0.27;96.86;99380.78;3387686;87;34904;-75
2021/01/26 10:14:41;;;;;;;11.70;8.63;;;;;;;0.23;96.48;99376.02;3366482;87;34983;-76
2021/01/26 10:19:43;;;;;;;12.37;10.53;;;;;;;0.38;95.70;99391.97;3360755;87;27230;-75
2021/01/26 10:24:47;;;;;;;11.33;8.07;;;;;;;0.38;95.86;99386.72;3391396;87;34818;-74
2021/01/26 10:29:50;;;;;;;16.40;11.27;;;;;;;0.44;97.01;99385.77;3373163;87;35321;-69
2021/01/26 10:34:51;;;;;;;18.20;13.27;;;;;;;0.42;97.19;99390.17;3370119;87;35507;-67
2021/01/26 10:40:30;;;;;;;17.27;11.73;;;;;;;0.40;97.18;99403.31;3370442;87;27746;-69
2021/01/26 10:45:40;;;;;;;15.40;11.53;;;;;;;0.21;98.63;99386.11;3347245;87;35310;-74
2021/01/26 10:50:41;;;;;;;12.20;7.53;;;;;;;0.23;99.16;99386.94;3301153;88;34923;-75
2021/01/26 10:55:42;;;;;;;14.00;9.87;;;;;;;0.14;99.76;99390.10;3335390;88;27283;-74
2021/01/26 11:00:43;;;;;;;15.97;12.40;;;;;;;0.15;100.00;99401.47;3355481;87;27210;-75
2021/01/26 11:05:45;;;;;;;15.72;11.60;;;;;;;0.16;100.00;99407.14;3349477;87;26767;-75
2021/01/26 11:10:47;;;;;;;14.33;10.67;;;;;;;0.17;100.00;99406.69;3376541;87;26689;-75
2021/01/26 11:15:48;;;;;;;13.57;8.90;;;;;;;0.14;99.48;99400.58;3356603;87;26902;-75
2021/01/26 11:20:54;;;;;;;15.43;11.13;;;;;;;0.22;99.61;99391.75;3358420;87;26349;-75
2021/01/26 11:25:54;;;;;;;17.15;10.43;;;;;;;0.33;98.56;99395.53;3382717;87;25801;-74
2021/01/26 11:30:55;;;;;;;14.13;9.57;;;;;;;0.29;97.94;99393.40;3393778;87;26685;-75
2021/01/26 11:35:58;;;;;;;13.63;9.37;;;;;;;0.25;98.16;99399.59;3389582;87;27203;-76
2021/01/26 11:41:04;;;;;;;16.20;11.47;;;;;;;0.33;97.75;99388.55;3369597;87;34987;-75
2021/01/26 11:46:06;;;;;;;14.80;11.17;;;;;;;0.30;97.72;99387.27;3307743;88;35434;-75
2021/01/26 11:51:09;;;;;;;12.27;8.27;;;;;;;0.31;96.48;99388.59;3341098;82;726610;-68
2021/01/26 11:56:11;;;;;;;18.20;12.77;;;;;;;0.30;95.58;99384.23;3354406;88;35480;-74
2021/01/26 12:01:12;;;;;;;16.50;12.80;;;;;;;0.49;96.53;99385.72;3354357;87;34882;-67
2021/01/26 12:06:13;;;;;;;11.83;8.80;;;;;;;0.50;95.64;99376.93;3332474;88;27219;-74
2021/01/26 12:11:15;;;;;;;16.50;11.53;;;;;;;0.44;98.02;99388.40;3299383;88;27327;-75
2021/01/26 12:16:16;;;;;;;14.67;9.27;;;;;;;0.40;97.17;99374.47;3298961;88;27259;-74
2021/01/26 12:21:17;;;;;;;16.23;12.23;;;;;;;0.42;97.35;99379.68;3315795;88;25861;-68
2021/01/26 12:26:19;;;;;;;19.00;13.47;;;;;;;0.54;96.93;99386.50;3304463;88;25798;-75
2021/01/26 12:31:20;;;;;;;15.83;10.33;;;;;;;0.69;97.14;99388.01;3298326;88;26456;-75
2021/01/26 12:36:21;;;;;;;19.40;11.93;;;;;;;0.60;96.68;99382.47;3360290;87;26714;-74
2021/01/26 12:41:22;;;;;;;18.32;13.20;;;;;;;0.56;97.27;99395.22;3401414;85;27768;-74
2021/01/26 12:46:23;;;;;;;18.10;12.20;;;;;;;0.52;97.73;99386.53;3402781;87;25835;-76
2021/01/26 12:51:26;;;;;;;14.23;8.80;;;;;;;0.50;97.58;99386.99;3404694;86;26260;-75
2021/01/26 12:56:28;;;;;;;21.03;14.60;;;;;;;0.50;96.81;99403.16;3404665;85;34912;-74
2021/01/26 13:01:29;;;;;;;17.93;12.37;;;;;;;0.51;97.06;99397.91;3404704;87;27236;-74
2021/01/26 13:06:30;;;;;;;17.12;11.20;;;;;;;0.46;96.99;99408.46;3378070;87;27397;-75
2021/01/26 13:11:31;;;;;;;16.77;11.60;;;;;;;0.50;96.96;99401.84;3404912;85;25825;-70
2021/01/26 13:16:32;;;;;;;15.97;10.00;;;;;;;0.49;95.54;99419.80;3405269;85;25866;-74
2021/01/26 13:21:34;;;;;;;15.85;9.50;;;;;;;0.46;95.17;99411.51;3404538;85;26343;-74
2021/01/26 13:26:35;;;;;;;14.30;9.00;;;;;;;0.49;96.43;99415.88;3404795;85;26647;-74
2021/01/26 13:31:36;;;;;;;15.90;10.72;;;;;;;0.48;96.86;99416.30;3404830;87;26760;-74
2021/01/26 13:36:37;;;;;;;17.37;10.57;;;;;;;0.44;96.66;99418.09;3384369;87;25874;-74
2021/01/26 13:41:41;;;;;;;16.97;12.17;;;;;;;0.47;98.09;99410.62;3402906;87;25925;-74
2021/01/26 13:46:42;;;;;;;14.90;9.13;;;;;;;0.52;97.57;99411.88;3403375;86;35326;-70
2021/01/26 13:51:43;;;;;;;13.43;9.70;;;;;;;0.50;97.04;99425.02;3387156;87;26687;-73
2021/01/26 13:56:45;;;;;;;17.40;12.07;;;;;;;0.50;97.55;99425.44;3387105;87;27196;-75
2021/01/26 14:01:46;;;;;;;17.60;12.33;;;;;;;0.50;97.59;99426.33;3397259;86;34865;-74
2021/01/26 14:06:47;;;;;;;20.40;13.57;;;;;;;0.53;96.99;99426.72;3403027;85;27275;-68
2021/01/26 14:11:51;;;;;;;16.83;9.43;;;;;;;0.46;97.85;99434.68;3403356;85;26367;-68
2021/01/26 14:16:51;;;;;;;20.80;14.53;;;;;;;0.51;97.44;99438.98;3386654;86;35411;-73
2021/01/26 14:21:56;;;;;;;16.33;11.03;;;;;;;0.50;97.47;99438.13;3403391;85;34789;-71
2021/01/26 14:26:57;;;;;;;19.67;13.20;;;;;;;0.47;98.57;99443.41;3403431;85;35032;-73
2021/01/26 14:31:58;;;;;;;21.67;15.33;;;;;;;0.46;98.72;99436.42;3403133;85;26315;-73
2021/01/26 14:36:59;;;;;;;19.93;12.77;;;;;;;0.49;99.88;99448.66;3402584;86;26316;-70
2021/01/26 14:42:01;;;;;;;22.43;13.63;;;;;;;0.40;100.00;99447.88;3403033;85;26250;-74
2021/01/26 14:47:06;;;;;;;25.20;16.13;;;;;;;0.40;100.00;99454.44;3403394;85;26392;-70
2021/01/26 14:52:08;;;;;;;18.83;11.73;;;;;;;0.41;100.00;99455.29;3403741;87;35524;-73
2021/01/26 14:57:09;;;;;;;22.17;15.10;;;;;;;0.38;100.00;99466.69;3404013;87;27747;-69
2021/01/26 15:02:10;;;;;;;17.80;12.57;;;;;;;0.38;100.00;99462.76;3403087;83;26280;-74
2021/01/26 15:07:11;;;;;;;22.33;14.70;;;;;;;0.38;100.00;99477.18;3403289;85;26289;-75
2021/01/26 15:12:12;;;;;;;21.85;13.88;;;;;;;0.35;100.00;99467.17;3403732;84;32536;-74
2021/01/26 15:17:15;;;;;;;23.03;13.37;;;;;;;0.38;100.00;99472.39;3397497;87;25848;-76
2021/01/26 15:22:16;;;;;;;19.83;14.73;;;;;;;0.35;100.00;99480.28;3456534;85;35000;-76
2021/01/26 15:27:17;;;;;;;14.70;10.47;;;;;;;0.38;100.00;99486.36;3397155;87;25847;-75
2021/01/26 15:32:18;;;;;;;22.07;16.10;;;;;;;0.32;100.00;99477.27;3456495;84;26298;-70
2021/01/26 15:37:20;;;;;;;26.40;16.57;;;;;;;0.33;100.00;99492.11;3445427;85;26388;-75
2021/01/26 15:42:23;;;;;;;21.73;15.20;;;;;;;0.37;100.00;99491.63;3439413;85;27238;-76
2021/01/26 15:47:25;;;;;;;22.47;16.47;;;;;;;0.38;100.00;99503.40;3387334;87;35495;-73
2021/01/26 15:52:26;;;;;;;25.33;16.07;;;;;;;0.39;100.00;99502.98;3457029;85;35011;-76
2021/01/26 15:57:27;;;;;;;21.70;14.13;;;;;;;0.41;100.00;99496.82;3457358;85;27286;-74
2021/01/26 16:02:29;;;;;;;22.53;17.30;;;;;;;0.35;100.00;99498.64;3459448;84;28194;-77
2021/01/26 16:07:30;;;;;;;19.70;13.20;;;;;;;0.36;100.00;99503.00;3388888;87;34945;-75
2021/01/26 16:12:31;;;;;;;24.00;14.77;;;;;;;0.29;100.00;99503.50;3456510;85;26282;-76
2021/01/26 16:17:33;;;;;;;19.57;15.00;;;;;;;0.33;100.00;99506.95;3396925;87;27372;-76
2021/01/26 16:22:34;;;;;;;22.27;14.80;;;;;;;0.30;100.00;99511.80;3453614;85;26221;-76
2021/01/26 16:27:35;;;;;;;21.30;15.63;;;;;;;0.30;100.00;99511.80;3450305;85;25865;-75
2021/01/26 16:32:36;;;;;;;19.87;13.43;;;;;;;0.29;100.00;99533.66;3397511;87;25858;-69
2021/01/26 16:37:37;;;;;;;22.00;15.33;;;;;;;0.25;100.00;99515.78;3434981;84;767242;-75
2021/01/26 16:42:44;;;;;;;23.47;16.60;;;;;;;0.27;100.00;99511.40;3444077;85;25892;-76
2021/01/26 16:47:51;;;;;;;22.70;15.10;;;;;;;0.29;100.00;99519.23;3448952;85;34887;-75
2021/01/26 16:52:52;;;;;;;22.87;15.67;;;;;;;0.26;100.00;99527.16;3448831;86;35950;-76
2021/01/26 16:57:54;;;;;;;20.03;13.57;;;;;;;0.23;100.00;99529.37;3411804;85;28261;-70
2021/01/26 17:02:55;;;;;;;17.00;11.20;;;;;;;0.24;100.00;99538.09;3411684;87;26070;-75
2021/01/26 17:07:56;;;;;;;17.40;12.13;;;;;;;0.17;100.00;99533.38;3411874;86;34958;-74
2021/01/26 17:12:58;;;;;;;18.17;13.40;;;;;;;0.12;100.00;99546.53;3411920;85;25828;-75
2021/01/26 17:17:59;;;;;;;17.33;10.83;;;;;;;0.17;100.00;99545.59;3411943;86;27296;-74
2021/01/26 17:23:00;;;;;;;21.63;15.63;;;;;;;0.10;100.00;99557.46;3411897;86;25811;-76
2021/01/26 17:28:01;;;;;;;21.03;14.37;;;;;;;0.14;100.00;99551.75;3411716;87;25836;-69
2021/01/26 17:33:05;;;;;;;18.17;12.47;;;;;;;0.07;100.00;99552.70;3411876;85;25924;-75
2021/01/26 17:38:07;;;;;;;21.83;13.87;;;;;;;0.09;100.00;99551.79;3410933;86;34862;-68
2021/01/26 17:43:09;;;;;;;22.33;14.57;;;;;;;0.11;100.00;99561.83;3411589;85;36011;-76
2021/01/26 17:48:13;;;;;;;16.40;9.53;;;;;;;0.08;100.00;99563.61;3396808;87;44407;-75
2021/01/26 17:53:15;;;;;;;18.40;11.23;;;;;;;0.09;100.00;99578.45;3411781;86;34809;-77
2021/01/26 17:58:16;;;;;;;20.23;12.90;;;;;;;0.06;100.00;99580.67;3411816;87;34898;-75
2021/01/26 18:03:18;;;;;;;20.67;13.97;;;;;;;0.06;100.00;99574.12;3411408;85;35277;-69
2021/01/26 18:08:19;;;;;;;19.03;13.00;;;;;;;0.14;100.00;99581.89;3376904;85;26812;-75
2021/01/26 18:13:20;;;;;;;19.20;14.40;;;;;;;0.07;100.00;99586.31;3364691;87;25819;-75
2021/01/26 18:18:22;;;;;;;17.40;11.17;;;;;;;0.07;100.00;99588.93;3366975;87;27253;-76
2021/01/26 18:23:23;;;;;;;18.70;11.50;;;;;;;0.02;100.00;99596.44;3375204;87;26370;-77
2021/01/26 18:28:24;;;;;;;18.10;11.67;;;;;;;-0.01;100.00;99588.16;3378423;85;26348;-69
2021/01/26 18:33:25;;;;;;;12.90;7.57;;;;;;;-0.01;100.00;99590.78;3379116;87;25842;-75
2021/01/26 18:38:26;;;;;;;19.27;12.57;;;;;;;-0.04;100.00;99602.59;3353344;85;25836;-76
2021/01/26 18:43:27;;;;;;;18.90;13.13;;;;;;;0.02;100.00;99608.22;3435144;85;26396;-76
2021/01/26 18:48:28;;;;;;;21.80;14.37;;;;;;;-0.04;100.00;99596.04;3425560;85;25791;-69
2021/01/26 18:53:30;;;;;;;19.82;12.40;;;;;;;-0.04;100.00;99594.73;3424169;85;25849;-76
2021/01/26 18:58:31;;;;;;;16.40;11.23;;;;;;;-0.04;100.00;99597.35;3436466;85;26121;-74
2021/01/26 19:03:32;;;;;;;13.00;9.27;;;;;;;-0.10;100.00;99602.66;3439645;85;26338;-76
2021/01/26 19:08:34;;;;;;;18.17;12.07;;;;;;;-0.10;100.00;99603.96;3441702;85;25836;-77
2021/01/26 19:13:35;;;;;;;20.37;14.23;;;;;;;-0.13;100.00;99596.11;3434070;85;25887;-74
2021/01/26 19:18:40;;;;;;;20.67;13.27;;;;;;;-0.11;100.00;99595.67;3430914;85;25909;-77
2021/01/26 19:23:43;;;;;;;18.05;11.93;;;;;;;-0.14;100.00;99607.50;3426179;85;25891;-72
2021/01/26 19:28:44;;;;;;;17.23;12.13;;;;;;;-0.17;100.00;99610.57;3425418;85;35399;-74
2021/01/26 19:33:47;;;;;;;19.90;12.13;;;;;;;-0.11;100.00;99624.48;3432145;85;27233;-74
2021/01/26 19:38:48;;;;;;;24.73;15.67;;;;;;;-0.11;100.00;99628.42;3433814;85;35001;-74
2021/01/26 19:43:50;;;;;;;16.67;12.73;;;;;;;-0.19;100.00;99620.64;3412890;86;26341;-74
2021/01/26 19:48:51;;;;;;;20.33;12.47;;;;;;;-0.14;100.00;99632.39;3372042;87;34923;-74
2021/01/26 19:53:52;;;;;;;15.37;11.83;;;;;;;-0.20;99.85;99632.84;3373194;85;26300;-74
2021/01/26 19:58:55;;;;;;;16.83;10.00;;;;;;;-0.30;99.95;99635.13;3367024;85;25878;-74
2021/01/26 20:03:56;;;;;;;15.40;8.67;;;;;;;-0.27;99.17;99632.92;3375723;85;34926;-73
2021/01/26 20:08:57;;;;;;;16.13;11.00;;;;;;;-0.39;99.99;99637.36;3375587;87;26305;-74
2021/01/26 20:13:59;;;;;;;17.03;8.67;;;;;;;-0.32;99.14;99630.34;3381001;87;26299;-69
2021/01/26 20:19:00;;;;;;;16.33;11.50;;;;;;;-0.41;99.30;99639.56;3422972;83;26233;-74
2021/01/26 20:24:02;;;;;;;13.80;8.80;;;;;;;-0.36;99.48;99639.97;3524017;84;25825;-69
2021/01/26 20:29:04;;;;;;;19.73;14.03;;;;;;;-0.40;100.00;99650.47;3528774;83;35370;-75
2021/01/26 20:34:05;;;;;;;14.93;8.30;;;;;;;-0.46;100.00;99637.00;3523956;84;25878;-75
2021/01/26 20:39:06;;;;;;;19.80;13.47;;;;;;;-0.50;100.00;99652.28;3524580;83;26247;-73
2021/01/26 20:44:07;;;;;;;16.77;10.97;;;;;;;-0.44;100.00;99651.39;3529553;83;25834;-67
2021/01/26 20:49:09;;;;;;;19.43;8.00;;;;;;;-0.44;100.00;99650.08;3524826;84;26340;-74
2021/01/26 20:54:13;;;;;;;20.70;14.23;;;;;;;-0.49;100.00;99659.27;3525559;83;34804;-74
2021/01/26 20:59:16;;;;;;;19.07;12.90;;;;;;;-0.53;100.00;99657.11;3527816;83;34864;-75
2021/01/26 21:04:19;;;;;;;20.63;13.33;;;;;;;-0.54;100.00;99648.81;3524459;83;34906;-74
2021/01/26 21:09:25;;;;;;;24.53;16.70;;;;;;;-0.55;100.00;99654.08;3527802;84;35472;-68
2021/01/26 21:14:26;;;;;;;20.83;13.37;;;;;;;-0.51;100.00;99655.78;3527490;84;34872;-74
2021/01/26 21:19:27;;;;;;;24.17;15.13;;;;;;;-0.56;100.00;99659.73;3525747;84;25731;-74
2021/01/26 21:24:28;;;;;;;19.40;11.90;;;;;;;-0.40;100.00;99664.88;3458404;81;43003;-74
2021/01/26 21:29:29;;;;;;;21.10;13.73;;;;;;;-0.51;100.00;99660.59;3371582;86;25830;-74
2021/01/26 21:34:31;;;;;;;21.57;14.77;;;;;;;-0.55;100.00;99654.93;3303400;89;25744;-74
2021/01/26 21:39:32;;;;;;;26.50;16.80;;;;;;;-0.54;100.00;99659.30;3275058;88;25898;-74
2021/01/26 21:44:33;;;;;;;21.47;15.27;;;;;;;-0.59;100.00;99657.57;3267696;90;25822;-73
2021/01/26 21:49:34;;;;;;;24.27;16.47;;;;;;;-0.58;100.00;99656.28;3267603;89;25791;-73
2021/01/26 21:54:35;;;;;;;23.90;16.33;;;;;;;-0.46;100.00;99654.45;3267528;89;25844;-74
2021/01/26 21:59:39;;;;;;;22.73;16.37;;;;;;;-0.55;100.00;99662.78;3308774;85;35654;-67
2021/01/26 22:04:41;;;;;;;21.03;13.10;;;;;;;-0.53;100.00;99657.11;3322293;88;34842;-74
2021/01/26 22:09:42;;;;;;;23.17;17.00;;;;;;;-0.53;100.00;99656.25;3322119;89;26280;-71
2021/01/26 22:14:43;;;;;;;22.90;14.60;;;;;;;-0.54;100.00;99663.67;3322620;88;35395;-73
2021/01/26 22:19:49;;;;;;;17.17;13.27;;;;;;;-0.62;100.00;99658.92;3322581;88;25809;-75
2021/01/26 22:24:50;;;;;;;23.47;16.63;;;;;;;-0.55;100.00;99661.47;3323361;88;34904;-74
2021/01/26 22:29:52;;;;;;;25.93;14.43;;;;;;;-0.59;100.00;99660.19;3323300;88;25903;-75
2021/01/26 22:34:53;;;;;;;22.70;13.97;;;;;;;-0.58;100.00;99657.59;3323308;88;25778;-74
2021/01/26 22:39:54;;;;;;;24.15;16.37;;;;;;;-0.58;100.00;99665.86;3395988;85;27186;-74
2021/01/26 22:44:55;;;;;;;22.17;15.00;;;;;;;-0.56;100.00;99658.42;3358388;88;25828;-73
2021/01/26 22:49:56;;;;;;;25.47;15.77;;;;;;;-0.60;100.00;99658.03;3358588;87;25789;-74
2021/01/26 22:54:57;;;;;;;16.17;9.80;;;;;;;-0.61;100.00;99653.66;3357064;87;25839;-75
2021/01/26 22:59:58;;;;;;;22.57;15.07;;;;;;;-0.63;100.00;99648.87;3415080;86;25874;-74
2021/01/26 23:04:59;;;;;;;23.83;15.27;;;;;;;-0.57;100.00;99649.28;3356764;88;25828;-76
2021/01/26 23:10:03;;;;;;;20.90;12.73;;;;;;;-0.49;100.00;99653.58;3356685;87;26271;-73
2021/01/26 23:15:14;;;;;;;23.10;14.20;;;;;;;-0.51;100.00;99642.27;3356458;88;34806;-74
2021/01/26 23:20:19;;;;;;;23.77;14.97;;;;;;;-0.55;100.00;99644.45;3356776;87;34915;-74
2021/01/26 23:25:23;;;;;;;23.47;16.43;;;;;;;-0.52;100.00;99647.07;3356685;88;34864;-72
2021/01/26 23:30:28;;;;;;;25.07;16.03;;;;;;;-0.56;100.00;99640.55;3356718;88;35430;-73